sensor_id;sensor_type;location;lat;lon;timestamp;P1;P2;P0
36897;PMS5003;22827;53.108;-6.738;2024-01-15T00:01:35;6;6;
36897;PMS5003;22827;53.108;-6.738;2024-01-15T00:04:07;10;7;
36897;PMS5003;22827;53.108;-6.738;2024-01-15T00:06:34;7;7;
36897;PMS5003;22827;53.108;-6.738;2024-01-15T00:09:01;9;6;
36897;PMS5003;22827;53.108;-6.738;2024-01-15T00:11:29;9;5;
36897;PMS5003;22827;53.108;-6.738;2024-01-15T00:13:56;10;7;
36897;PMS5003;22827;53.108;-6.738;2024-01-15T00:16:23;6;5;
36897;PMS5003;22827;53.108;-6.738;2024-01-15T00:18:50;7;5;
36897;PMS5003;22827;53.108;-6.738;2024-01-15T00:21:17;9;9;
36897;PMS5003;22827;53.108;-6.738;2024-01-15T00:23:44;11;5;
36897;PMS5003;22827;53.108;-6.738;2024-01-15T00:26:11;10;7;
36897;PMS5003;22827;53.108;-6.738;2024-01-15T00:28:39;9;6;
36897;PMS5003;22827;53.108;-6.738;2024-01-15T00:31:06;9;7;
36897;PMS5003;22827;53.108;-6.738;2024-01-15T00:33:33;7;6;
36897;PMS5003;22827;53.108;-6.738;2024-01-15T00:36:00;7;5;
36897;PMS5003;22827;53.108;-6.738;2024-01-15T00:38:26;7;6;
36897;PMS5003;22827;53.108;-6.738;2024-01-15T00:40:54;9;5;
36897;PMS5003;22827;53.108;-6.738;2024-01-15T00:43:22;9;7;
36897;PMS5003;22827;53.108;-6.738;2024-01-15T00:45:49;9;5;
36897;PMS5003;22827;53.108;-6.738;2024-01-15T00:48:15;10;10;
36897;PMS5003;22827;53.108;-6.738;2024-01-15T00:50:43;10;7;
36897;PMS5003;22827;53.108;-6.738;2024-01-15T00:53:10;11;9;
36897;PMS5003;22827;53.108;-6.738;2024-01-15T00:55:37;7;7;
36897;PMS5003;22827;53.108;-6.738;2024-01-15T00:58:04;10;9;
36897;PMS5003;22827;53.108;-6.738;2024-01-15T01:00:31;14;9;
36897;PMS5003;22827;53.108;-6.738;2024-01-15T01:02:58;11;11;
36897;PMS5003;22827;53.108;-6.738;2024-01-15T01:05:25;11;6;
36897;PMS5003;22827;53.108;-6.738;2024-01-15T01:07:52;10;9;
36897;PMS5003;22827;53.108;-6.738;2024-01-15T01:10:19;13;6;
36897;PMS5003;22827;53.108;-6.738;2024-01-15T01:12:46;7;6;
36897;PMS5003;22827;53.108;-6.738;2024-01-15T01:15:14;10;6;
36897;PMS5003;22827;53.108;-6.738;2024-01-15T01:17:41;10;7;
36897;PMS5003;22827;53.108;-6.738;2024-01-15T01:20:08;10;7;
36897;PMS5003;22827;53.108;-6.738;2024-01-15T01:22:36;11;9;
36897;PMS5003;22827;53.108;-6.738;2024-01-15T01:25:04;10;7;
36897;PMS5003;22827;53.108;-6.738;2024-01-15T01:27:31;6;5;
36897;PMS5003;22827;53.108;-6.738;2024-01-15T01:29:59;11;9;
36897;PMS5003;22827;53.108;-6.738;2024-01-15T01:32:26;9;5;
36897;PMS5003;22827;53.108;-6.738;2024-01-15T01:34:53;7;6;
36897;PMS5003;22827;53.108;-6.738;2024-01-15T01:37:20;5;5;
36897;PMS5003;22827;53.108;-6.738;2024-01-15T01:39:47;9;7;
36897;PMS5003;22827;53.108;-6.738;2024-01-15T01:42:15;7;3;
36897;PMS5003;22827;53.108;-6.738;2024-01-15T01:44:42;15;7;
36897;PMS5003;22827;53.108;-6.738;2024-01-15T01:47:09;13;7;
36897;PMS5003;22827;53.108;-6.738;2024-01-15T01:49:36;6;5;
36897;PMS5003;22827;53.108;-6.738;2024-01-15T01:52:05;5;5;
36897;PMS5003;22827;53.108;-6.738;2024-01-15T01:54:33;7;6;
36897;PMS5003;22827;53.108;-6.738;2024-01-15T01:57:02;3;2;
36897;PMS5003;22827;53.108;-6.738;2024-01-15T01:59:30;10;9;
36897;PMS5003;22827;53.108;-6.738;2024-01-15T02:01:58;17;15;
36897;PMS5003;22827;53.108;-6.738;2024-01-15T02:04:28;9;6;
36897;PMS5003;22827;53.108;-6.738;2024-01-15T02:06:55;11;5;
36897;PMS5003;22827;53.108;-6.738;2024-01-15T02:09:22;7;5;
36897;PMS5003;22827;53.108;-6.738;2024-01-15T02:11:49;5;3;
36897;PMS5003;22827;53.108;-6.738;2024-01-15T02:14:16;5;5;
36897;PMS5003;22827;53.108;-6.738;2024-01-15T02:16:43;7;6;
36897;PMS5003;22827;53.108;-6.738;2024-01-15T02:19:14;6;5;
36897;PMS5003;22827;53.108;-6.738;2024-01-15T02:21:41;7;5;
36897;PMS5003;22827;53.108;-6.738;2024-01-15T02:24:08;5;4;
36897;PMS5003;22827;53.108;-6.738;2024-01-15T02:26:36;5;5;
36897;PMS5003;22827;53.108;-6.738;2024-01-15T02:29:03;10;8;
36897;PMS5003;22827;53.108;-6.738;2024-01-15T02:31:33;9;6;
36897;PMS5003;22827;53.108;-6.738;2024-01-15T02:34:00;8;8;
36897;PMS5003;22827;53.108;-6.738;2024-01-15T02:36:27;6;2;
36897;PMS5003;22827;53.108;-6.738;2024-01-15T02:38:54;13;8;
36897;PMS5003;22827;53.108;-6.738;2024-01-15T02:41:21;6;4;
36897;PMS5003;22827;53.108;-6.738;2024-01-15T02:43:48;10;7;
36897;PMS5003;22827;53.108;-6.738;2024-01-15T02:46:15;14;6;
36897;PMS5003;22827;53.108;-6.738;2024-01-15T02:48:42;7;5;
36897;PMS5003;22827;53.108;-6.738;2024-01-15T02:51:09;10;5;
36897;PMS5003;22827;53.108;-6.738;2024-01-15T02:53:37;6;6;
36897;PMS5003;22827;53.108;-6.738;2024-01-15T02:56:04;6;3;
36897;PMS5003;22827;53.108;-6.738;2024-01-15T02:58:31;3;3;
36897;PMS5003;22827;53.108;-6.738;2024-01-15T03:00:58;9;6;
36897;PMS5003;22827;53.108;-6.738;2024-01-15T03:03:25;10;6;
36897;PMS5003;22827;53.108;-6.738;2024-01-15T03:05:52;7;3;
36897;PMS5003;22827;53.108;-6.738;2024-01-15T03:08:19;6;5;
36897;PMS5003;22827;53.108;-6.738;2024-01-15T03:10:46;9;3;
36897;PMS5003;22827;53.108;-6.738;2024-01-15T03:13:13;3;3;
36897;PMS5003;22827;53.108;-6.738;2024-01-15T03:15:40;11;9;
36897;PMS5003;22827;53.108;-6.738;2024-01-15T03:18:07;5;5;
36897;PMS5003;22827;53.108;-6.738;2024-01-15T03:20:34;3;3;
36897;PMS5003;22827;53.108;-6.738;2024-01-15T03:23:01;6;6;
36897;PMS5003;22827;53.108;-6.738;2024-01-15T03:25:28;6;5;
36897;PMS5003;22827;53.108;-6.738;2024-01-15T03:27:55;5;5;
36897;PMS5003;22827;53.108;-6.738;2024-01-15T03:30:22;7;5;
36897;PMS5003;22827;53.108;-6.738;2024-01-15T03:32:49;6;3;
36897;PMS5003;22827;53.108;-6.738;2024-01-15T03:35:16;6;5;
36897;PMS5003;22827;53.108;-6.738;2024-01-15T03:37:44;7;6;
36897;PMS5003;22827;53.108;-6.738;2024-01-15T03:40:11;5;5;
36897;PMS5003;22827;53.108;-6.738;2024-01-15T03:42:39;6;5;
36897;PMS5003;22827;53.108;-6.738;2024-01-15T03:45:06;7;5;
36897;PMS5003;22827;53.108;-6.738;2024-01-15T03:47:34;7;5;
36897;PMS5003;22827;53.108;-6.738;2024-01-15T03:50:01;5;3;
36897;PMS5003;22827;53.108;-6.738;2024-01-15T03:52:28;5;5;
36897;PMS5003;22827;53.108;-6.738;2024-01-15T03:54:55;6;5;
36897;PMS5003;22827;53.108;-6.738;2024-01-15T03:57:23;6;5;
36897;PMS5003;22827;53.108;-6.738;2024-01-15T03:59:49;10;6;
36897;PMS5003;22827;53.108;-6.738;2024-01-15T04:02:16;8;5;
36897;PMS5003;22827;53.108;-6.738;2024-01-15T04:04:43;8;6;
36897;PMS5003;22827;53.108;-6.738;2024-01-15T04:07:11;8;5;
36897;PMS5003;22827;53.108;-6.738;2024-01-15T04:09:38;2;2;
36897;PMS5003;22827;53.108;-6.738;2024-01-15T04:12:05;6;5;
36897;PMS5003;22827;53.108;-6.738;2024-01-15T04:14:32;5;4;
36897;PMS5003;22827;53.108;-6.738;2024-01-15T04:16:59;9;5;
36897;PMS5003;22827;53.108;-6.738;2024-01-15T04:19:26;8;8;
36897;PMS5003;22827;53.108;-6.738;2024-01-15T04:21:54;12;5;
36897;PMS5003;22827;53.108;-6.738;2024-01-15T04:24:21;6;4;
36897;PMS5003;22827;53.108;-6.738;2024-01-15T04:26:48;6;5;
36897;PMS5003;22827;53.108;-6.738;2024-01-15T04:29:16;9;6;
36897;PMS5003;22827;53.108;-6.738;2024-01-15T04:31:43;6;6;
36897;PMS5003;22827;53.108;-6.738;2024-01-15T04:34:10;6;4;
36897;PMS5003;22827;53.108;-6.738;2024-01-15T04:36:39;5;5;
36897;PMS5003;22827;53.108;-6.738;2024-01-15T04:39:06;9;8;
36897;PMS5003;22827;53.108;-6.738;2024-01-15T04:41:33;8;5;
36897;PMS5003;22827;53.108;-6.738;2024-01-15T04:44:00;6;5;
36897;PMS5003;22827;53.108;-6.738;2024-01-15T04:46:28;9;6;
36897;PMS5003;22827;53.108;-6.738;2024-01-15T04:48:55;8;4;
36897;PMS5003;22827;53.108;-6.738;2024-01-15T04:51:23;9;8;
36897;PMS5003;22827;53.108;-6.738;2024-01-15T04:53:50;8;4;
36897;PMS5003;22827;53.108;-6.738;2024-01-15T04:56:17;9;6;
36897;PMS5003;22827;53.108;-6.738;2024-01-15T04:58:44;13;9;
36897;PMS5003;22827;53.108;-6.738;2024-01-15T05:01:11;9;5;
36897;PMS5003;22827;53.108;-6.738;2024-01-15T05:03:39;6;3;
36897;PMS5003;22827;53.108;-6.738;2024-01-15T05:06:06;4;4;
36897;PMS5003;22827;53.108;-6.738;2024-01-15T05:08:33;6;4;
36897;PMS5003;22827;53.108;-6.738;2024-01-15T05:11:01;6;4;
36897;PMS5003;22827;53.108;-6.738;2024-01-15T05:13:28;6;2;
36897;PMS5003;22827;53.108;-6.738;2024-01-15T05:15:55;10;5;
36897;PMS5003;22827;53.108;-6.738;2024-01-15T05:18:22;5;5;
36897;PMS5003;22827;53.108;-6.738;2024-01-15T05:20:49;2;2;
36897;PMS5003;22827;53.108;-6.738;2024-01-15T05:23:16;12;6;
36897;PMS5003;22827;53.108;-6.738;2024-01-15T05:25:44;14;12;
36897;PMS5003;22827;53.108;-6.738;2024-01-15T05:28:11;9;9;
36897;PMS5003;22827;53.108;-6.738;2024-01-15T05:30:38;2;2;
36897;PMS5003;22827;53.108;-6.738;2024-01-15T05:33:05;8;5;
36897;PMS5003;22827;53.108;-6.738;2024-01-15T05:35:32;2;1;
36897;PMS5003;22827;53.108;-6.738;2024-01-15T05:37:59;4;4;
36897;PMS5003;22827;53.108;-6.738;2024-01-15T05:40:26;4;4;
36897;PMS5003;22827;53.108;-6.738;2024-01-15T05:42:54;6;4;
36897;PMS5003;22827;53.108;-6.738;2024-01-15T05:45:21;5;5;
36897;PMS5003;22827;53.108;-6.738;2024-01-15T05:47:48;4;4;
36897;PMS5003;22827;53.108;-6.738;2024-01-15T05:50:15;7;5;
36897;PMS5003;22827;53.108;-6.738;2024-01-15T05:52:42;5;5;
36897;PMS5003;22827;53.108;-6.738;2024-01-15T05:55:09;6;4;
36897;PMS5003;22827;53.108;-6.738;2024-01-15T05:57:36;2;2;
36897;PMS5003;22827;53.108;-6.738;2024-01-15T06:00:04;4;4;
36897;PMS5003;22827;53.108;-6.738;2024-01-15T06:02:31;4;2;
36897;PMS5003;22827;53.108;-6.738;2024-01-15T06:04:59;4;2;
36897;PMS5003;22827;53.108;-6.738;2024-01-15T06:07:26;1;1;
36897;PMS5003;22827;53.108;-6.738;2024-01-15T06:09:53;6;2;
36897;PMS5003;22827;53.108;-6.738;2024-01-15T06:12:20;4;2;
36897;PMS5003;22827;53.108;-6.738;2024-01-15T06:14:48;6;3;
36897;PMS5003;22827;53.108;-6.738;2024-01-15T06:17:15;4;2;
36897;PMS5003;22827;53.108;-6.738;2024-01-15T06:19:42;2;2;
36897;PMS5003;22827;53.108;-6.738;2024-01-15T06:22:09;1;1;
36897;PMS5003;22827;53.108;-6.738;2024-01-15T06:24:36;2;2;
36897;PMS5003;22827;53.108;-6.738;2024-01-15T06:27:04;5;2;
36897;PMS5003;22827;53.108;-6.738;2024-01-15T06:29:31;4;2;
36897;PMS5003;22827;53.108;-6.738;2024-01-15T06:31:59;4;2;
36897;PMS5003;22827;53.108;-6.738;2024-01-15T06:34:26;2;2;
36897;PMS5003;22827;53.108;-6.738;2024-01-15T06:36:53;2;2;
36897;PMS5003;22827;53.108;-6.738;2024-01-15T06:39:20;4;2;
36897;PMS5003;22827;53.108;-6.738;2024-01-15T06:41:47;4;1;
36897;PMS5003;22827;53.108;-6.738;2024-01-15T06:44:14;4;1;
36897;PMS5003;22827;53.108;-6.738;2024-01-15T06:46:41;4;2;
36897;PMS5003;22827;53.108;-6.738;2024-01-15T06:49:09;5;2;
36897;PMS5003;22827;53.108;-6.738;2024-01-15T06:51:36;2;2;
36897;PMS5003;22827;53.108;-6.738;2024-01-15T06:54:03;5;4;
36897;PMS5003;22827;53.108;-6.738;2024-01-15T06:56:31;6;2;
36897;PMS5003;22827;53.108;-6.738;2024-01-15T06:58:58;1;1;
36897;PMS5003;22827;53.108;-6.738;2024-01-15T07:01:25;4;2;
36897;PMS5003;22827;53.108;-6.738;2024-01-15T07:03:52;2;2;
36897;PMS5003;22827;53.108;-6.738;2024-01-15T07:06:19;4;4;
36897;PMS5003;22827;53.108;-6.738;2024-01-15T07:08:46;2;2;
36897;PMS5003;22827;53.108;-6.738;2024-01-15T07:11:13;6;2;
36897;PMS5003;22827;53.108;-6.738;2024-01-15T07:13:40;2;2;
36897;PMS5003;22827;53.108;-6.738;2024-01-15T07:16:07;2;1;
36897;PMS5003;22827;53.108;-6.738;2024-01-15T07:18:35;2;2;
36897;PMS5003;22827;53.108;-6.738;2024-01-15T07:21:02;2;1;
36897;PMS5003;22827;53.108;-6.738;2024-01-15T07:23:30;4;4;
36897;PMS5003;22827;53.108;-6.738;2024-01-15T07:25:58;4;2;
36897;PMS5003;22827;53.108;-6.738;2024-01-15T07:28:25;4;4;
36897;PMS5003;22827;53.108;-6.738;2024-01-15T07:30:52;1;1;
36897;PMS5003;22827;53.108;-6.738;2024-01-15T07:33:19;9;5;
36897;PMS5003;22827;53.108;-6.738;2024-01-15T07:35:46;4;2;
36897;PMS5003;22827;53.108;-6.738;2024-01-15T07:38:13;2;2;
36897;PMS5003;22827;53.108;-6.738;2024-01-15T07:40:41;4;4;
36897;PMS5003;22827;53.108;-6.738;2024-01-15T07:43:08;4;4;
36897;PMS5003;22827;53.108;-6.738;2024-01-15T07:45:35;12;11;
36897;PMS5003;22827;53.108;-6.738;2024-01-15T07:48:02;15;11;
36897;PMS5003;22827;53.108;-6.738;2024-01-15T07:50:30;57;49;
36897;PMS5003;22827;53.108;-6.738;2024-01-15T07:52:58;21;19;
36897;PMS5003;22827;53.108;-6.738;2024-01-15T07:55:25;8;5;
36897;PMS5003;22827;53.108;-6.738;2024-01-15T07:57:52;8;2;
36897;PMS5003;22827;53.108;-6.738;2024-01-15T08:00:19;4;4;
36897;PMS5003;22827;53.108;-6.738;2024-01-15T08:02:46;15;13;
36897;PMS5003;22827;53.108;-6.738;2024-01-15T08:05:14;15;11;
36897;PMS5003;22827;53.108;-6.738;2024-01-15T08:07:41;13;12;
36897;PMS5003;22827;53.108;-6.738;2024-01-15T08:10:08;12;12;
36897;PMS5003;22827;53.108;-6.738;2024-01-15T08:12:35;13;9;
36897;PMS5003;22827;53.108;-6.738;2024-01-15T08:15:03;12;12;
36897;PMS5003;22827;53.108;-6.738;2024-01-15T08:17:31;13;12;
36897;PMS5003;22827;53.108;-6.738;2024-01-15T08:19:58;11;11;
36897;PMS5003;22827;53.108;-6.738;2024-01-15T08:22:25;11;9;
36897;PMS5003;22827;53.108;-6.738;2024-01-15T08:24:52;11;6;
36897;PMS5003;22827;53.108;-6.738;2024-01-15T08:27:19;11;8;
36897;PMS5003;22827;53.108;-6.738;2024-01-15T08:29:47;8;6;
36897;PMS5003;22827;53.108;-6.738;2024-01-15T08:32:14;11;6;
36897;PMS5003;22827;53.108;-6.738;2024-01-15T08:34:41;5;5;
36897;PMS5003;22827;53.108;-6.738;2024-01-15T08:37:08;12;8;
36897;PMS5003;22827;53.108;-6.738;2024-01-15T08:39:35;9;9;
36897;PMS5003;22827;53.108;-6.738;2024-01-15T08:42:02;16;15;
36897;PMS5003;22827;53.108;-6.738;2024-01-15T08:44:30;16;12;
36897;PMS5003;22827;53.108;-6.738;2024-01-15T08:46:57;23;16;
36897;PMS5003;22827;53.108;-6.738;2024-01-15T08:49:23;16;12;
36897;PMS5003;22827;53.108;-6.738;2024-01-15T08:51:51;19;17;
36897;PMS5003;22827;53.108;-6.738;2024-01-15T08:54:18;39;32;
36897;PMS5003;22827;53.108;-6.738;2024-01-15T08:56:45;37;32;
36897;PMS5003;22827;53.108;-6.738;2024-01-15T08:59:12;27;21;
36897;PMS5003;22827;53.108;-6.738;2024-01-15T09:01:39;29;22;
36897;PMS5003;22827;53.108;-6.738;2024-01-15T09:04:07;127;102;
36897;PMS5003;22827;53.108;-6.738;2024-01-15T09:06:33;91;79;
36897;PMS5003;22827;53.108;-6.738;2024-01-15T09:09:00;82;60;
36897;PMS5003;22827;53.108;-6.738;2024-01-15T09:11:27;30;24;
36897;PMS5003;22827;53.108;-6.738;2024-01-15T09:13:55;21;16;
36897;PMS5003;22827;53.108;-6.738;2024-01-15T09:16:22;40;30;
36897;PMS5003;22827;53.108;-6.738;2024-01-15T09:18:48;28;26;
36897;PMS5003;22827;53.108;-6.738;2024-01-15T09:21:16;45;39;
36897;PMS5003;22827;53.108;-6.738;2024-01-15T09:23:43;37;33;
36897;PMS5003;22827;53.108;-6.738;2024-01-15T09:26:11;33;29;
36897;PMS5003;22827;53.108;-6.738;2024-01-15T09:28:38;42;27;
36897;PMS5003;22827;53.108;-6.738;2024-01-15T09:31:05;32;27;
36897;PMS5003;22827;53.108;-6.738;2024-01-15T09:33:32;29;27;
36897;PMS5003;22827;53.108;-6.738;2024-01-15T09:36:01;24;21;
36897;PMS5003;22827;53.108;-6.738;2024-01-15T09:38:29;16;14;
36897;PMS5003;22827;53.108;-6.738;2024-01-15T09:40:55;25;20;
36897;PMS5003;22827;53.108;-6.738;2024-01-15T09:43:23;13;13;
36897;PMS5003;22827;53.108;-6.738;2024-01-15T09:45:50;12;10;
36897;PMS5003;22827;53.108;-6.738;2024-01-15T09:48:17;14;13;
36897;PMS5003;22827;53.108;-6.738;2024-01-15T09:50:46;16;10;
36897;PMS5003;22827;53.108;-6.738;2024-01-15T09:53:13;16;9;
36897;PMS5003;22827;53.108;-6.738;2024-01-15T09:55:41;13;8;
36897;PMS5003;22827;53.108;-6.738;2024-01-15T09:58:08;14;10;
36897;PMS5003;22827;53.108;-6.738;2024-01-15T10:00:36;9;7;
36897;PMS5003;22827;53.108;-6.738;2024-01-15T10:03:05;15;10;
36897;PMS5003;22827;53.108;-6.738;2024-01-15T10:05:33;14;10;
36897;PMS5003;22827;53.108;-6.738;2024-01-15T10:08:00;11;10;
36897;PMS5003;22827;53.108;-6.738;2024-01-15T10:10:29;17;14;
36897;PMS5003;22827;53.108;-6.738;2024-01-15T10:12:56;13;10;
36897;PMS5003;22827;53.108;-6.738;2024-01-15T10:15:25;13;10;
36897;PMS5003;22827;53.108;-6.738;2024-01-15T10:17:52;7;6;
36897;PMS5003;22827;53.108;-6.738;2024-01-15T10:20:19;5;5;
36897;PMS5003;22827;53.108;-6.738;2024-01-15T10:22:47;5;3;
36897;PMS5003;22827;53.108;-6.738;2024-01-15T10:25:16;6;6;
36897;PMS5003;22827;53.108;-6.738;2024-01-15T10:27:43;6;3;
36897;PMS5003;22827;53.108;-6.738;2024-01-15T10:30:11;6;6;
36897;PMS5003;22827;53.108;-6.738;2024-01-15T10:32:39;5;5;
36897;PMS5003;22827;53.108;-6.738;2024-01-15T10:35:07;7;2;
36897;PMS5003;22827;53.108;-6.738;2024-01-15T10:37:34;5;3;
36897;PMS5003;22827;53.108;-6.738;2024-01-15T10:40:01;7;5;
36897;PMS5003;22827;53.108;-6.738;2024-01-15T10:42:29;6;5;
36897;PMS5003;22827;53.108;-6.738;2024-01-15T10:44:56;11;7;
36897;PMS5003;22827;53.108;-6.738;2024-01-15T10:47:23;7;6;
36897;PMS5003;22827;53.108;-6.738;2024-01-15T10:49:50;6;5;
36897;PMS5003;22827;53.108;-6.738;2024-01-15T10:52:19;10;3;
36897;PMS5003;22827;53.108;-6.738;2024-01-15T10:54:47;6;6;
36897;PMS5003;22827;53.108;-6.738;2024-01-15T10:57:15;6;6;
36897;PMS5003;22827;53.108;-6.738;2024-01-15T10:59:43;8;6;
36897;PMS5003;22827;53.108;-6.738;2024-01-15T11:02:10;6;5;
36897;PMS5003;22827;53.108;-6.738;2024-01-15T11:04:38;8;6;
36897;PMS5003;22827;53.108;-6.738;2024-01-15T11:07:05;6;5;
36897;PMS5003;22827;53.108;-6.738;2024-01-15T11:09:33;7;5;
36897;PMS5003;22827;53.108;-6.738;2024-01-15T11:12:10;6;5;
36897;PMS5003;22827;53.108;-6.738;2024-01-15T11:14:39;10;6;
36897;PMS5003;22827;53.108;-6.738;2024-01-15T11:17:08;7;5;
36897;PMS5003;22827;53.108;-6.738;2024-01-15T11:19:36;13;11;
36897;PMS5003;22827;53.108;-6.738;2024-01-15T11:22:04;8;8;
36897;PMS5003;22827;53.108;-6.738;2024-01-15T11:24:35;12;8;
36897;PMS5003;22827;53.108;-6.738;2024-01-15T11:27:04;7;6;
36897;PMS5003;22827;53.108;-6.738;2024-01-15T11:29:32;7;7;
36897;PMS5003;22827;53.108;-6.738;2024-01-15T11:32:03;12;10;
36897;PMS5003;22827;53.108;-6.738;2024-01-15T11:35:03;6;5;
36897;PMS5003;22827;53.108;-6.738;2024-01-15T11:40:36;8;6;
36897;PMS5003;22827;53.108;-6.738;2024-01-15T11:43:04;11;8;
36897;PMS5003;22827;53.108;-6.738;2024-01-15T11:45:32;10;8;
36897;PMS5003;22827;53.108;-6.738;2024-01-15T11:48:15;16;15;
36897;PMS5003;22827;53.108;-6.738;2024-01-15T11:50:43;17;13;
36897;PMS5003;22827;53.108;-6.738;2024-01-15T11:53:15;10;7;
36897;PMS5003;22827;53.108;-6.738;2024-01-15T11:55:44;5;5;
36897;PMS5003;22827;53.108;-6.738;2024-01-15T11:58:12;15;8;
36897;PMS5003;22827;53.108;-6.738;2024-01-15T12:00:40;11;8;
36897;PMS5003;22827;53.108;-6.738;2024-01-15T12:03:09;7;6;
36897;PMS5003;22827;53.108;-6.738;2024-01-15T12:05:37;3;3;
36897;PMS5003;22827;53.108;-6.738;2024-01-15T12:08:04;7;6;
36897;PMS5003;22827;53.108;-6.738;2024-01-15T12:10:31;6;6;
36897;PMS5003;22827;53.108;-6.738;2024-01-15T12:12:59;11;7;
36897;PMS5003;22827;53.108;-6.738;2024-01-15T12:15:31;12;7;
36897;PMS5003;22827;53.108;-6.738;2024-01-15T12:17:59;12;7;
36897;PMS5003;22827;53.108;-6.738;2024-01-15T12:20:28;10;10;
36897;PMS5003;22827;53.108;-6.738;2024-01-15T12:22:56;10;10;
36897;PMS5003;22827;53.108;-6.738;2024-01-15T12:25:23;10;8;
36897;PMS5003;22827;53.108;-6.738;2024-01-15T12:27:52;6;6;
36897;PMS5003;22827;53.108;-6.738;2024-01-15T12:30:19;8;5;
36897;PMS5003;22827;53.108;-6.738;2024-01-15T12:32:47;11;5;
36897;PMS5003;22827;53.108;-6.738;2024-01-15T12:35:15;6;6;
36897;PMS5003;22827;53.108;-6.738;2024-01-15T12:37:42;7;7;
36897;PMS5003;22827;53.108;-6.738;2024-01-15T12:40:10;10;7;
36897;PMS5003;22827;53.108;-6.738;2024-01-15T12:42:37;8;6;
36897;PMS5003;22827;53.108;-6.738;2024-01-15T12:45:06;5;5;
36897;PMS5003;22827;53.108;-6.738;2024-01-15T12:47:34;11;8;
36897;PMS5003;22827;53.108;-6.738;2024-01-15T12:50:02;10;6;
36897;PMS5003;22827;53.108;-6.738;2024-01-15T12:52:32;7;6;
36897;PMS5003;22827;53.108;-6.738;2024-01-15T12:54:59;7;6;
36897;PMS5003;22827;53.108;-6.738;2024-01-15T12:57:26;7;5;
36897;PMS5003;22827;53.108;-6.738;2024-01-15T12:59:54;6;6;
36897;PMS5003;22827;53.108;-6.738;2024-01-15T13:02:21;7;6;
36897;PMS5003;22827;53.108;-6.738;2024-01-15T13:04:49;8;6;
36897;PMS5003;22827;53.108;-6.738;2024-01-15T13:07:16;8;6;
36897;PMS5003;22827;53.108;-6.738;2024-01-15T13:09:43;3;3;
36897;PMS5003;22827;53.108;-6.738;2024-01-15T13:12:10;5;3;
36897;PMS5003;22827;53.108;-6.738;2024-01-15T13:14:37;11;7;
36897;PMS5003;22827;53.108;-6.738;2024-01-15T13:17:04;7;6;
36897;PMS5003;22827;53.108;-6.738;2024-01-15T13:19:31;9;7;
36897;PMS5003;22827;53.108;-6.738;2024-01-15T13:21:59;7;4;
36897;PMS5003;22827;53.108;-6.738;2024-01-15T13:24:26;2;2;
36897;PMS5003;22827;53.108;-6.738;2024-01-15T13:26:52;4;3;
36897;PMS5003;22827;53.108;-6.738;2024-01-15T13:29:20;3;3;
36897;PMS5003;22827;53.108;-6.738;2024-01-15T13:31:46;6;4;
36897;PMS5003;22827;53.108;-6.738;2024-01-15T13:34:13;7;7;
36897;PMS5003;22827;53.108;-6.738;2024-01-15T13:36:40;6;4;
36897;PMS5003;22827;53.108;-6.738;2024-01-15T13:39:07;8;4;
36897;PMS5003;22827;53.108;-6.738;2024-01-15T13:41:35;6;4;
36897;PMS5003;22827;53.108;-6.738;2024-01-15T13:44:03;9;7;
36897;PMS5003;22827;53.108;-6.738;2024-01-15T13:46:29;8;7;
36897;PMS5003;22827;53.108;-6.738;2024-01-15T13:48:57;11;8;
36897;PMS5003;22827;53.108;-6.738;2024-01-15T13:51:24;6;4;
36897;PMS5003;22827;53.108;-6.738;2024-01-15T13:53:51;9;7;
36897;PMS5003;22827;53.108;-6.738;2024-01-15T13:56:18;7;7;
36897;PMS5003;22827;53.108;-6.738;2024-01-15T13:58:46;7;4;
36897;PMS5003;22827;53.108;-6.738;2024-01-15T14:01:13;21;9;
36897;PMS5003;22827;53.108;-6.738;2024-01-15T14:03:40;8;7;
36897;PMS5003;22827;53.108;-6.738;2024-01-15T14:06:07;8;7;
36897;PMS5003;22827;53.108;-6.738;2024-01-15T14:08:34;12;11;
36897;PMS5003;22827;53.108;-6.738;2024-01-15T14:11:02;9;8;
36897;PMS5003;22827;53.108;-6.738;2024-01-15T14:13:29;12;9;
36897;PMS5003;22827;53.108;-6.738;2024-01-15T14:15:56;16;14;
36897;PMS5003;22827;53.108;-6.738;2024-01-15T14:18:24;9;7;
36897;PMS5003;22827;53.108;-6.738;2024-01-15T14:20:51;8;8;
36897;PMS5003;22827;53.108;-6.738;2024-01-15T14:23:18;7;7;
36897;PMS5003;22827;53.108;-6.738;2024-01-15T14:25:45;8;6;
36897;PMS5003;22827;53.108;-6.738;2024-01-15T14:28:12;6;4;
36897;PMS5003;22827;53.108;-6.738;2024-01-15T14:30:39;11;7;
36897;PMS5003;22827;53.108;-6.738;2024-01-15T14:33:06;6;6;
36897;PMS5003;22827;53.108;-6.738;2024-01-15T14:35:33;12;6;
36897;PMS5003;22827;53.108;-6.738;2024-01-15T14:38:00;4;4;
36897;PMS5003;22827;53.108;-6.738;2024-01-15T14:40:27;7;6;
36897;PMS5003;22827;53.108;-6.738;2024-01-15T14:42:54;3;3;
36897;PMS5003;22827;53.108;-6.738;2024-01-15T14:45:21;6;6;
36897;PMS5003;22827;53.108;-6.738;2024-01-15T14:47:48;6;4;
36897;PMS5003;22827;53.108;-6.738;2024-01-15T14:50:15;8;4;
36897;PMS5003;22827;53.108;-6.738;2024-01-15T14:52:42;7;6;
36897;PMS5003;22827;53.108;-6.738;2024-01-15T14:55:10;11;6;
36897;PMS5003;22827;53.108;-6.738;2024-01-15T14:57:37;3;2;
36897;PMS5003;22827;53.108;-6.738;2024-01-15T15:00:04;3;2;
36897;PMS5003;22827;53.108;-6.738;2024-01-15T15:02:32;8;4;
36897;PMS5003;22827;53.108;-6.738;2024-01-15T15:04:59;4;2;
36897;PMS5003;22827;53.108;-6.738;2024-01-15T15:07:26;3;2;
36897;PMS5003;22827;53.108;-6.738;2024-01-15T15:09:53;6;4;
36897;PMS5003;22827;53.108;-6.738;2024-01-15T15:12:20;2;2;
36897;PMS5003;22827;53.108;-6.738;2024-01-15T15:14:47;7;4;
36897;PMS5003;22827;53.108;-6.738;2024-01-15T15:17:14;3;2;
36897;PMS5003;22827;53.108;-6.738;2024-01-15T15:19:41;11;3;
36897;PMS5003;22827;53.108;-6.738;2024-01-15T15:22:08;3;3;
36897;PMS5003;22827;53.108;-6.738;2024-01-15T15:24:36;2;2;
36897;PMS5003;22827;53.108;-6.738;2024-01-15T15:27:03;2;2;
36897;PMS5003;22827;53.108;-6.738;2024-01-15T15:29:31;3;3;
36897;PMS5003;22827;53.108;-6.738;2024-01-15T15:31:58;6;6;
36897;PMS5003;22827;53.108;-6.738;2024-01-15T15:34:25;5;3;
36897;PMS5003;22827;53.108;-6.738;2024-01-15T15:36:52;2;2;
36897;PMS5003;22827;53.108;-6.738;2024-01-15T15:39:19;10;7;
36897;PMS5003;22827;53.108;-6.738;2024-01-15T15:41:46;10;3;
36897;PMS5003;22827;53.108;-6.738;2024-01-15T15:44:14;6;6;
36897;PMS5003;22827;53.108;-6.738;2024-01-15T15:46:41;5;5;
36897;PMS5003;22827;53.108;-6.738;2024-01-15T15:49:08;7;3;
36897;PMS5003;22827;53.108;-6.738;2024-01-15T15:51:36;6;6;
36897;PMS5003;22827;53.108;-6.738;2024-01-15T15:54:03;6;2;
36897;PMS5003;22827;53.108;-6.738;2024-01-15T15:56:31;6;6;
36897;PMS5003;22827;53.108;-6.738;2024-01-15T15:58:59;6;3;
36897;PMS5003;22827;53.108;-6.738;2024-01-15T16:01:27;7;3;
36897;PMS5003;22827;53.108;-6.738;2024-01-15T16:03:54;13;10;
36897;PMS5003;22827;53.108;-6.738;2024-01-15T16:06:21;8;6;
36897;PMS5003;22827;53.108;-6.738;2024-01-15T16:08:48;12;8;
36897;PMS5003;22827;53.108;-6.738;2024-01-15T16:11:15;10;7;
36897;PMS5003;22827;53.108;-6.738;2024-01-15T16:13:42;7;7;
36897;PMS5003;22827;53.108;-6.738;2024-01-15T16:16:09;7;7;
36897;PMS5003;22827;53.108;-6.738;2024-01-15T16:18:36;13;7;
36897;PMS5003;22827;53.108;-6.738;2024-01-15T16:21:03;7;6;
36897;PMS5003;22827;53.108;-6.738;2024-01-15T16:23:31;8;6;
36897;PMS5003;22827;53.108;-6.738;2024-01-15T16:25:58;6;3;
36897;PMS5003;22827;53.108;-6.738;2024-01-15T16:28:25;7;6;
36897;PMS5003;22827;53.108;-6.738;2024-01-15T16:30:53;6;5;